Time;durP1;ratioP1;P1;durP2;ratioP2;P2;SDS_P1;SDS_P2;PMS_P1;PMS_P2;Temp;Humidity;BMP_temperature;BMP_pressure;BME280_temperature;BME280_humidity;BME280_pressure;Samples;Min_cycle;Max_cycle;Signal;HPM_P1;HPM_P2
2022/07/23 00:01:32;;;;;;;12.60;10.80;;;18.40;99.90;;;;;;5032127;28;20196;-82
2022/07/23 00:03:58;;;;;;;16.05;12.48;;;18.40;99.90;;;;;;5032480;28;20616;-83
2022/07/23 00:06:24;;;;;;;12.52;10.55;;;18.50;99.90;;;;;;5032648;28;20168;-83
2022/07/23 00:08:52;;;;;;;14.68;11.82;;;18.60;99.90;;;;;;5032558;28;20291;-84
2022/07/23 00:11:18;;;;;;;12.85;11.50;;;18.50;99.90;;;;;;5014598;28;20206;-82
2022/07/23 00:13:44;;;;;;;11.43;10.32;;;18.30;99.90;;;;;;5032579;28;20159;-82
2022/07/23 00:16:09;;;;;;;18.52;12.43;;;18.20;99.90;;;;;;5032310;28;20207;-81
2022/07/23 00:18:35;;;;;;;13.40;11.45;;;18.40;99.90;;;;;;5035708;28;20168;-81
2022/07/23 00:21:01;;;;;;;12.50;11.27;;;18.20;99.90;;;;;;5036032;28;20269;-82
2022/07/23 00:23:28;;;;;;;11.98;10.77;;;18.30;99.90;;;;;;5036212;28;20187;-83
2022/07/23 00:25:54;;;;;;;16.15;11.18;;;18.40;99.90;;;;;;5036078;28;20275;-83
2022/07/23 00:28:20;;;;;;;17.00;12.10;;;18.40;99.90;;;;;;5035920;28;20743;-83
2022/07/23 00:30:45;;;;;;;11.75;10.55;;;18.30;99.90;;;;;;5035913;28;20199;-82
2022/07/23 00:33:11;;;;;;;20.52;11.50;;;18.30;99.90;;;;;;5036266;28;20168;-83
2022/07/23 00:35:40;;;;;;;20.35;10.27;;;18.40;99.90;;;;;;5035571;28;20672;-81
2022/07/23 00:38:07;;;;;;;11.40;10.20;;;18.20;99.90;;;;;;5018024;28;20275;-82
2022/07/23 00:40:33;;;;;;;11.27;9.88;;;18.20;99.90;;;;;;5017676;28;20188;-81
2022/07/23 00:42:59;;;;;;;14.45;11.77;;;18.30;99.90;;;;;;5035572;28;20183;-82
2022/07/23 00:45:25;;;;;;;21.63;12.32;;;18.50;99.90;;;;;;5035610;28;20575;-81
2022/07/23 00:47:50;;;;;;;13.38;10.35;;;18.50;99.90;;;;;;5035414;28;20176;-82
2022/07/23 00:50:16;;;;;;;14.93;10.95;;;18.40;99.90;;;;;;5035357;28;20196;-81
2022/07/23 00:52:42;;;;;;;20.38;11.40;;;18.40;99.90;;;;;;5035472;28;20168;-82
2022/07/23 00:55:11;;;;;;;14.07;11.35;;;18.30;99.90;;;;;;5035682;28;20198;-81
2022/07/23 00:57:37;;;;;;;12.48;11.27;;;18.50;99.90;;;;;;5035826;28;20168;-83
2022/07/23 01:00:05;;;;;;;12.90;11.13;;;18.50;99.90;;;;;;5017831;28;20551;-81
2022/07/23 01:02:31;;;;;;;13.15;10.15;;;18.30;99.90;;;;;;5035182;28;20210;-81
2022/07/23 01:04:56;;;;;;;13.45;11.50;;;18.00;99.90;;;;;;5017711;28;20187;-82
2022/07/23 01:07:23;;;;;;;17.90;12.02;;;18.00;99.90;;;;;;5036584;28;20156;-81
2022/07/23 01:09:50;;;;;;;24.20;12.13;;;18.20;99.90;;;;;;5038610;28;20179;-81
2022/07/23 01:12:16;;;;;;;13.55;11.27;;;18.20;99.90;;;;;;5047625;28;20211;-83
2022/07/23 01:14:41;;;;;;;17.67;12.30;;;18.20;99.90;;;;;;5035422;28;20196;-83
2022/07/23 01:17:07;;;;;;;13.38;11.68;;;18.30;99.90;;;;;;5035053;28;20290;-81
2022/07/23 01:19:33;;;;;;;16.23;11.35;;;18.20;99.90;;;;;;5035211;28;20638;-82
2022/07/23 01:22:02;;;;;;;13.70;10.30;;;18.10;99.90;;;;;;5035002;28;20179;-82
2022/07/23 01:24:28;;;;;;;13.55;11.07;;;18.00;99.90;;;;;;5034939;28;20602;-83
2022/07/23 01:26:54;;;;;;;16.52;11.00;;;18.00;99.90;;;;;;5035089;28;20258;-83
2022/07/23 01:29:21;;;;;;;13.55;10.75;;;17.80;99.90;;;;;;5034068;28;20168;-83
2022/07/23 01:31:47;;;;;;;13.20;10.98;;;17.90;99.90;;;;;;5035304;28;20262;-80
2022/07/23 01:34:13;;;;;;;23.13;11.48;;;17.70;99.90;;;;;;5017410;28;20171;-81
2022/07/23 01:36:39;;;;;;;11.38;10.23;;;17.70;99.90;;;;;;5017041;28;20298;-84
2022/07/23 01:39:06;;;;;;;12.45;11.15;;;17.80;99.90;;;;;;5034984;28;20243;-84
2022/07/23 01:41:31;;;;;;;14.27;10.80;;;17.60;99.90;;;;;;5034724;28;20215;-81
2022/07/23 01:43:57;;;;;;;17.33;10.63;;;17.50;99.90;;;;;;5034668;28;20222;-82
2022/07/23 01:46:23;;;;;;;19.15;11.55;;;17.60;99.90;;;;;;5034644;28;20250;-83
2022/07/23 01:48:49;;;;;;;14.93;11.13;;;17.60;99.90;;;;;;5034956;28;20172;-84
2022/07/23 01:51:14;;;;;;;14.73;11.20;;;17.70;99.90;;;;;;5034667;28;20179;-80
2022/07/23 01:53:40;;;;;;;15.23;11.35;;;17.90;99.90;;;;;;5034474;28;20611;-80
2022/07/23 01:56:06;;;;;;;11.93;10.57;;;17.90;99.90;;;;;;5034806;28;20261;-81
2022/07/23 01:58:32;;;;;;;14.10;11.02;;;17.80;99.90;;;;;;5034304;28;20575;-83
2022/07/23 02:00:58;;;;;;;20.52;12.25;;;17.70;99.90;;;;;;5034163;28;20266;-83
2022/07/23 02:03:24;;;;;;;14.73;11.52;;;17.70;99.90;;;;;;5034558;28;20575;-80
2022/07/23 02:05:50;;;;;;;12.25;11.00;;;17.60;99.90;;;;;;5034443;28;20217;-84
2022/07/23 02:08:17;;;;;;;12.70;10.18;;;17.60;99.90;;;;;;5034472;28;20168;-83
2022/07/23 02:10:42;;;;;;;14.13;10.85;;;17.70;99.90;;;;;;5033960;28;20192;-82
2022/07/23 02:13:08;;;;;;;18.38;11.38;;;17.70;99.90;;;;;;5034062;28;20171;-82
2022/07/23 02:15:34;;;;;;;14.98;11.68;;;17.70;99.90;;;;;;5034020;28;20687;-83
2022/07/23 02:17:59;;;;;;;11.02;9.93;;;17.90;99.90;;;;;;5016314;28;20518;-83
2022/07/23 02:20:25;;;;;;;13.10;11.65;;;17.80;99.90;;;;;;5033932;28;20215;-80
2022/07/23 02:22:51;;;;;;;11.90;10.35;;;17.80;99.90;;;;;;5033774;28;20179;-80
2022/07/23 02:25:17;;;;;;;15.02;10.20;;;17.80;99.90;;;;;;5033867;28;20638;-82
2022/07/23 02:27:43;;;;;;;12.50;11.10;;;17.60;99.90;;;;;;5033926;28;20191;-81
2022/07/23 02:30:09;;;;;;;13.15;11.63;;;17.70;99.90;;;;;;5034053;28;20664;-84
2022/07/23 02:32:35;;;;;;;17.05;11.82;;;17.80;99.90;;;;;;5033480;28;20199;-83
2022/07/23 02:35:02;;;;;;;16.85;11.35;;;18.00;99.90;;;;;;5033639;28;20162;-83
2022/07/23 02:37:28;;;;;;;14.90;11.52;;;17.80;99.90;;;;;;5033701;28;20637;-83
2022/07/23 02:39:53;;;;;;;15.20;12.50;;;17.50;99.90;;;;;;5015677;28;20191;-83
2022/07/23 02:42:19;;;;;;;14.88;12.07;;;17.40;99.90;;;;;;5033412;28;20156;-80
2022/07/23 02:44:45;;;;;;;16.75;12.45;;;17.30;99.90;;;;;;5034179;28;20700;-83
2022/07/23 02:47:10;;;;;;;21.33;12.15;;;17.20;99.90;;;;;;5033251;28;20242;-83
2022/07/23 02:49:36;;;;;;;13.98;11.98;;;17.30;99.90;;;;;;5035991;28;20186;-79
2022/07/23 02:52:02;;;;;;;14.80;11.75;;;17.40;99.90;;;;;;5024458;28;20171;-83
2022/07/23 02:54:28;;;;;;;12.90;11.52;;;17.30;99.90;;;;;;5001971;28;20742;-83
2022/07/23 02:56:53;;;;;;;16.88;12.23;;;17.30;99.90;;;;;;5035581;28;20227;-83
2022/07/23 02:59:19;;;;;;;16.38;11.60;;;17.20;99.90;;;;;;5037001;28;20164;-84
2022/07/23 03:01:45;;;;;;;12.52;10.68;;;17.20;99.90;;;;;;5036787;28;20188;-81
2022/07/23 03:04:11;;;;;;;18.38;10.88;;;17.30;99.90;;;;;;5035577;28;20168;-80
2022/07/23 03:06:37;;;;;;;17.42;11.20;;;17.30;99.90;;;;;;5035254;28;20191;-83
2022/07/23 03:09:03;;;;;;;12.23;11.15;;;17.30;99.90;;;;;;5018342;28;20632;-83
2022/07/23 03:11:29;;;;;;;14.45;11.02;;;17.40;99.90;;;;;;5034649;28;20191;-80
2022/07/23 03:13:55;;;;;;;11.73;10.70;;;17.20;99.90;;;;;;5034984;28;20160;-83
2022/07/23 03:16:20;;;;;;;12.40;10.15;;;17.20;99.90;;;;;;5034739;28;20298;-83
2022/07/23 03:18:46;;;;;;;18.13;11.77;;;17.30;99.90;;;;;;5035488;28;20168;-80
2022/07/23 03:21:12;;;;;;;20.25;11.02;;;17.30;99.90;;;;;;5035246;28;20245;-79
2022/07/23 03:23:39;;;;;;;16.13;10.90;;;17.20;99.90;;;;;;5035304;28;20180;-81
2022/07/23 03:26:05;;;;;;;18.15;11.70;;;17.20;99.90;;;;;;5034576;28;20171;-82
2022/07/23 03:28:31;;;;;;;17.35;13.10;;;17.20;99.90;;;;;;5034721;28;20168;-83
2022/07/23 03:30:57;;;;;;;13.15;11.38;;;17.10;99.90;;;;;;5034694;28;20198;-84
2022/07/23 03:33:23;;;;;;;16.23;11.55;;;17.20;99.90;;;;;;5035872;28;20290;-81
2022/07/23 03:35:51;;;;;;;12.50;11.02;;;17.50;99.90;;;;;;5035120;28;20234;-81
2022/07/23 03:38:17;;;;;;;13.70;11.30;;;17.50;99.90;;;;;;5035531;28;20202;-82
2022/07/23 03:40:42;;;;;;;13.70;10.98;;;17.30;99.90;;;;;;5040752;28;20191;-80
2022/07/23 03:43:08;;;;;;;19.33;11.55;;;17.20;99.90;;;;;;5036683;28;20152;-79
2022/07/23 03:45:34;;;;;;;15.40;11.90;;;17.10;99.90;;;;;;5049865;28;20619;-79
2022/07/23 03:47:59;;;;;;;14.32;11.95;;;17.00;99.90;;;;;;5048576;28;20172;-80
2022/07/23 03:50:25;;;;;;;20.02;10.48;;;17.00;99.90;;;;;;5047469;28;20188;-81
2022/07/23 03:52:51;;;;;;;19.10;11.02;;;17.00;99.90;;;;;;5044068;28;20183;-83
2022/07/23 03:55:18;;;;;;;13.80;11.50;;;17.00;99.90;;;;;;5051812;28;20199;-82
2022/07/23 03:57:48;;;;;;;13.13;11.27;;;17.00;99.90;;;;;;5036539;28;20199;-80
2022/07/23 04:00:14;;;;;;;15.70;11.20;;;17.10;99.90;;;;;;5053291;28;20175;-80
2022/07/23 04:02:40;;;;;;;14.88;11.20;;;17.10;99.90;;;;;;5050939;28;20164;-81
2022/07/23 04:05:06;;;;;;;11.70;10.30;;;17.10;99.90;;;;;;5022681;28;20263;-81
2022/07/23 04:07:32;;;;;;;17.25;10.82;;;17.20;99.90;;;;;;5022823;28;20172;-84
2022/07/23 04:09:58;;;;;;;16.77;10.02;;;17.30;99.90;;;;;;5041310;28;20184;-84
2022/07/23 04:12:24;;;;;;;14.00;10.00;;;17.20;99.90;;;;;;5040679;28;20172;-82
2022/07/23 04:14:50;;;;;;;17.63;10.88;;;17.20;99.90;;;;;;5040297;28;20172;-83
2022/07/23 04:17:15;;;;;;;13.85;10.95;;;17.30;99.90;;;;;;5039974;28;20218;-83
2022/07/23 04:19:43;;;;;;;16.77;10.18;;;17.20;99.90;;;;;;5021751;28;20164;-83
2022/07/23 04:22:10;;;;;;;13.15;9.73;;;17.30;99.90;;;;;;5038918;28;20227;-80
2022/07/23 04:24:35;;;;;;;21.40;10.70;;;17.30;99.90;;;;;;5040856;28;20175;-82
2022/07/23 04:27:01;;;;;;;16.33;10.95;;;17.40;99.90;;;;;;5023929;28;20500;-81
2022/07/23 04:29:29;;;;;;;13.75;10.52;;;17.40;99.90;;;;;;5023337;28;20178;-82
2022/07/23 04:31:55;;;;;;;18.88;10.77;;;17.60;99.90;;;;;;5040801;28;20267;-81
2022/07/23 04:34:21;;;;;;;10.63;9.70;;;17.60;99.90;;;;;;5024700;28;20644;-82
2022/07/23 04:36:47;;;;;;;19.25;11.52;;;17.80;99.90;;;;;;5042303;28;20227;-82
2022/07/23 04:39:13;;;;;;;11.70;10.40;;;17.80;99.90;;;;;;5042348;28;20179;-81
2022/07/23 04:41:40;;;;;;;14.30;10.13;;;17.70;99.90;;;;;;5025413;28;20195;-81
2022/07/23 04:44:05;;;;;;;11.30;9.95;;;17.60;99.90;;;;;;5041675;28;20156;-82
2022/07/23 04:46:31;;;;;;;15.63;10.38;;;17.40;99.90;;;;;;5022373;28;20608;-81
2022/07/23 04:48:57;;;;;;;14.75;10.18;;;17.50;99.90;;;;;;5025516;28;20176;-81
2022/07/23 04:51:23;;;;;;;18.35;10.75;;;17.70;99.90;;;;;;5041575;28;20179;-82
2022/07/23 04:53:49;;;;;;;11.80;9.80;;;17.80;99.90;;;;;;5041765;28;20526;-82
2022/07/23 04:56:15;;;;;;;11.23;10.07;;;18.00;99.90;;;;;;5041445;28;20287;-81
2022/07/23 04:58:41;;;;;;;11.48;10.15;;;18.20;99.90;;;;;;5039659;28;20190;-81
2022/07/23 05:01:06;;;;;;;12.10;9.15;;;18.40;99.90;;;;;;5038643;28;20191;-81
2022/07/23 05:03:32;;;;;;;16.15;9.73;;;18.40;99.90;;;;;;5037614;28;20170;-82
2022/07/23 05:05:58;;;;;;;14.05;10.77;;;18.40;99.90;;;;;;5038926;28;20176;-81
2022/07/23 05:08:24;;;;;;;10.52;9.48;;;18.50;99.90;;;;;;5036146;28;20161;-82
2022/07/23 05:10:49;;;;;;;12.07;9.32;;;18.70;99.90;;;;;;5035631;28;20183;-81
2022/07/23 05:13:16;;;;;;;9.93;8.95;;;18.90;99.90;;;;;;5017714;28;20164;-82
2022/07/23 05:15:42;;;;;;;11.38;8.65;;;19.10;99.90;;;;;;5035526;28;20200;-82
2022/07/23 05:18:08;;;;;;;10.60;8.65;;;19.20;99.90;;;;;;5017654;28;20202;-83
2022/07/23 05:20:34;;;;;;;12.30;8.55;;;19.20;99.90;;;;;;5035605;28;20659;-83
2022/07/23 05:22:59;;;;;;;11.35;8.50;;;19.10;99.90;;;;;;5036103;28;20262;-82
2022/07/23 05:25:25;;;;;;;10.10;9.13;;;19.00;99.90;;;;;;5017986;28;20522;-81
2022/07/23 05:27:50;;;;;;;11.52;9.52;;;19.10;99.90;;;;;;5035203;28;20252;-82
2022/07/23 05:30:16;;;;;;;14.73;9.68;;;19.30;99.90;;;;;;5035580;28;20210;-82
2022/07/23 05:32:42;;;;;;;12.23;8.73;;;19.30;99.90;;;;;;5017998;28;20176;-81
2022/07/23 05:35:08;;;;;;;12.75;9.63;;;19.20;99.90;;;;;;5017580;28;20171;-83
2022/07/23 05:37:33;;;;;;;15.25;9.02;;;19.30;99.90;;;;;;5034959;28;20163;-83
2022/07/23 05:40:08;;;;;;;10.27;9.27;;;19.00;99.90;;;;;;5036181;28;20207;-82
2022/07/23 05:42:35;;;;;;;11.45;9.65;;;19.00;99.90;;;;;;5018018;28;20180;-83
2022/07/23 05:45:01;;;;;;;12.63;10.07;;;19.40;99.90;;;;;;5040937;28;20163;-83
2022/07/23 05:47:26;;;;;;;14.65;9.55;;;19.50;99.90;;;;;;5024367;28;20172;-81
2022/07/23 05:49:52;;;;;;;10.10;8.75;;;19.70;99.90;;;;;;5024201;28;20191;-81
2022/07/23 05:52:17;;;;;;;10.25;7.95;;;19.80;99.90;;;;;;5043610;28;20175;-80
2022/07/23 05:54:43;;;;;;;13.20;7.80;;;19.80;99.90;;;;;;5042413;28;20660;-82
2022/07/23 05:57:09;;;;;;;10.13;7.82;;;19.80;99.90;;;;;;5043048;28;20207;-81
2022/07/23 05:59:34;;;;;;;12.30;8.18;;;19.80;99.90;;;;;;5046321;28;20228;-81
2022/07/23 06:02:00;;;;;;;9.23;8.38;;;19.90;99.90;;;;;;5039274;28;20365;-81
2022/07/23 06:04:26;;;;;;;10.05;8.77;;;19.70;99.90;;;;;;5056794;28;20211;-81
2022/07/23 06:06:52;;;;;;;10.02;7.70;;;19.80;99.90;;;;;;5039993;28;20178;-81
2022/07/23 06:09:18;;;;;;;8.57;7.78;;;19.60;99.90;;;;;;5056342;28;20216;-81
2022/07/23 06:11:43;;;;;;;8.95;8.13;;;19.70;99.90;;;;;;5056860;28;20195;-81
2022/07/23 06:14:09;;;;;;;11.75;8.55;;;19.60;99.90;;;;;;5056319;28;20148;-82
2022/07/23 06:16:34;;;;;;;9.80;8.80;;;19.50;99.90;;;;;;5032389;28;20687;-80
2022/07/23 06:19:00;;;;;;;21.67;8.50;;;19.50;99.90;;;;;;5039995;28;20168;-81
2022/07/23 06:21:26;;;;;;;9.85;8.82;;;19.60;99.90;;;;;;5039409;28;20175;-80
2022/07/23 06:23:51;;;;;;;10.23;8.40;;;19.60;99.90;;;;;;5040368;28;20672;-82
2022/07/23 06:26:17;;;;;;;16.00;9.30;;;19.50;99.90;;;;;;5034192;28;20226;-81
2022/07/23 06:28:42;;;;;;;11.65;9.18;;;19.50;99.90;;;;;;5016298;28;20640;-81
2022/07/23 06:31:08;;;;;;;10.68;9.57;;;19.70;99.90;;;;;;5036866;28;20199;-82
2022/07/23 06:33:34;;;;;;;13.95;9.35;;;19.90;99.90;;;;;;5033849;28;20186;-81
2022/07/23 06:36:00;;;;;;;17.55;10.68;;;20.10;99.90;;;;;;5033864;28;20211;-82
2022/07/23 06:38:25;;;;;;;10.73;9.63;;;20.10;99.90;;;;;;5015995;28;20266;-82
2022/07/23 06:40:51;;;;;;;13.77;9.55;;;20.40;99.90;;;;;;5015810;28;20203;-81
2022/07/23 06:43:17;;;;;;;18.10;11.05;;;20.40;99.90;;;;;;5033544;28;20163;-82
2022/07/23 06:45:42;;;;;;;12.45;10.13;;;20.40;99.90;;;;;;5033474;28;20172;-81
2022/07/23 06:48:08;;;;;;;11.95;8.75;;;20.60;99.90;;;;;;5033779;28;20187;-83
2022/07/23 06:50:34;;;;;;;10.05;9.15;;;20.50;99.90;;;;;;5015617;28;20271;-81
2022/07/23 06:53:00;;;;;;;9.55;8.73;;;20.70;99.90;;;;;;5033354;28;20179;-82
2022/07/23 06:55:25;;;;;;;11.63;9.63;;;20.70;99.90;;;;;;5015669;28;20204;-82
2022/07/23 06:57:51;;;;;;;16.20;9.05;;;20.70;99.90;;;;;;5033137;28;20710;-83
2022/07/23 07:00:17;;;;;;;9.90;8.25;;;20.70;99.90;;;;;;5032951;28;20686;-81
2022/07/23 07:02:42;;;;;;;13.30;8.70;;;20.80;99.90;;;;;;5033142;28;20259;-82
2022/07/23 07:05:08;;;;;;;11.30;8.68;;;20.90;99.90;;;;;;5033138;28;20247;-82
2022/07/23 07:07:34;;;;;;;13.10;8.90;;;20.70;99.90;;;;;;5032740;28;20632;-81
2022/07/23 07:10:00;;;;;;;10.05;8.93;;;20.60;99.90;;;;;;5032671;28;20191;-81
2022/07/23 07:12:26;;;;;;;8.07;7.38;;;20.70;99.90;;;;;;5033023;28;20176;-82
2022/07/23 07:14:53;;;;;;;14.18;8.88;;;20.80;99.90;;;;;;5017780;28;20171;-81
2022/07/23 07:17:18;;;;;;;12.13;7.70;;;20.70;99.90;;;;;;5015924;28;20588;-81
2022/07/23 07:19:44;;;;;;;15.95;9.00;;;21.00;99.90;;;;;;5033784;28;20192;-82
2022/07/23 07:22:10;;;;;;;12.20;6.35;;;20.90;99.90;;;;;;5033970;28;20203;-80
2022/07/23 07:24:35;;;;;;;9.30;7.53;;;21.30;99.90;;;;;;5015753;28;20176;-81
2022/07/23 07:27:01;;;;;;;7.22;6.45;;;21.80;99.90;;;;;;5032211;28;20168;-82
2022/07/23 07:29:28;;;;;;;10.30;6.57;;;22.70;99.90;;;;;;5032672;28;20172;-81
2022/07/23 07:31:53;;;;;;;7.85;6.82;;;23.00;99.90;;;;;;5032316;28;20183;-82
2022/07/23 07:34:19;;;;;;;8.88;6.70;;;24.10;99.90;;;;;;5032482;28;20213;-82
2022/07/23 07:36:45;;;;;;;8.30;7.50;;;25.10;99.90;;;;;;5032422;28;20286;-83
2022/07/23 07:39:10;;;;;;;8.10;6.68;;;25.60;99.90;;;;;;5014774;28;20686;-81
2022/07/23 07:41:36;;;;;;;10.18;6.72;;;26.00;99.90;;;;;;5014850;28;20279;-82
2022/07/23 07:44:02;;;;;;;7.00;5.90;;;26.20;99.90;;;;;;5032705;28;20168;-81
2022/07/23 07:46:28;;;;;;;6.22;5.60;;;26.70;99.90;;;;;;5032777;28;20179;-81
2022/07/23 07:48:54;;;;;;;6.18;5.28;;;26.90;99.90;;;;;;5014889;28;20174;-83
2022/07/23 07:51:19;;;;;;;5.75;5.25;;;26.70;99.90;;;;;;5033055;28;20187;-83
2022/07/23 07:53:45;;;;;;;8.68;5.47;;;26.90;99.90;;;;;;5038308;28;20171;-82
2022/07/23 07:56:11;;;;;;;10.93;6.05;;;26.10;99.90;;;;;;5016127;28;20299;-81
2022/07/23 07:58:36;;;;;;;14.52;6.25;;;25.20;99.90;;;;;;5033215;28;20172;-82
2022/07/23 08:01:02;;;;;;;5.55;5.15;;;25.10;99.90;;;;;;5037788;28;20267;-82
2022/07/23 08:03:29;;;;;;;7.93;5.90;;;24.70;99.90;;;;;;5032922;28;20171;-79
2022/07/23 08:05:54;;;;;;;6.57;5.10;;;24.60;99.90;;;;;;5032730;28;20168;-83
2022/07/23 08:08:20;;;;;;;18.00;5.97;;;24.30;99.90;;;;;;5014687;28;20163;-82
2022/07/23 08:10:46;;;;;;;12.48;6.22;;;23.90;99.90;;;;;;5014937;28;20278;-82
2022/07/23 08:13:15;;;;;;;12.10;6.47;;;23.90;99.90;;;;;;5032554;28;20262;-82
2022/07/23 08:15:42;;;;;;;6.60;5.60;;;23.90;99.90;;;;;;5033488;28;20208;-80
2022/07/23 08:18:08;;;;;;;6.47;5.88;;;23.90;99.90;;;;;;5015672;28;20180;-83
2022/07/23 08:20:35;;;;;;;9.57;7.68;;;23.50;99.90;;;;;;5037251;28;20184;-81
2022/07/23 08:23:06;;;;;;;11.52;6.82;;;23.50;99.90;;;;;;4999964;28;20555;-82
2022/07/23 08:25:34;;;;;;;13.20;6.93;;;23.70;99.90;;;;;;5036119;28;20168;-81
2022/07/23 08:28:01;;;;;;;9.40;6.47;;;23.60;99.90;;;;;;5016664;28;20168;-82
2022/07/23 08:30:29;;;;;;;6.68;6.07;;;23.60;99.90;;;;;;5039008;28;20255;-82
2022/07/23 08:33:07;;;;;;;8.68;6.75;;;23.50;99.90;;;;;;5016655;28;20171;-82
2022/07/23 08:35:34;;;;;;;9.70;5.57;;;23.70;99.90;;;;;;5032189;28;20199;-82
2022/07/23 08:38:02;;;;;;;18.75;6.70;;;23.70;99.90;;;;;;5034004;28;20263;-82
2022/07/23 08:40:33;;;;;;;11.38;6.95;;;23.40;99.90;;;;;;5019341;28;20184;-81
2022/07/23 08:43:00;;;;;;;12.52;6.93;;;23.40;99.90;;;;;;5035751;28;20261;-81
2022/07/23 08:45:27;;;;;;;8.50;5.93;;;23.50;99.90;;;;;;5037054;28;20172;-82
2022/07/23 08:47:55;;;;;;;10.60;5.82;;;23.60;99.90;;;;;;5056233;28;20148;-80
2022/07/23 08:50:22;;;;;;;8.63;6.80;;;23.50;99.90;;;;;;5045266;28;20242;-83
2022/07/23 08:52:53;;;;;;;8.05;5.60;;;23.70;99.90;;;;;;5018280;28;20167;-81
2022/07/23 08:55:20;;;;;;;9.80;6.03;;;23.90;99.90;;;;;;5035852;28;20225;-81
2022/07/23 08:57:50;;;;;;;6.03;4.85;;;23.70;99.90;;;;;;5035847;28;20179;-83
2022/07/23 09:00:17;;;;;;;10.15;5.20;;;23.50;99.90;;;;;;5035407;28;20271;-82
2022/07/23 09:02:44;;;;;;;7.45;5.53;;;23.60;99.90;;;;;;5035472;28;20468;-83
2022/07/23 09:05:11;;;;;;;8.30;6.00;;;23.50;99.90;;;;;;5035745;28;20167;-81
2022/07/23 09:07:38;;;;;;;8.05;6.07;;;23.80;99.90;;;;;;5035379;28;20172;-82
2022/07/23 09:10:11;;;;;;;4.75;4.35;;;23.80;99.90;;;;;;5017311;28;20192;-82
2022/07/23 09:12:37;;;;;;;9.80;5.35;;;24.10;99.90;;;;;;5035473;28;20278;-82
2022/07/23 09:15:08;;;;;;;8.25;5.20;;;24.10;99.90;;;;;;5035294;28;20202;-82
2022/07/23 09:17:39;;;;;;;17.70;6.47;;;24.30;99.90;;;;;;5034878;28;20176;-83
2022/07/23 09:20:09;;;;;;;5.82;4.50;;;24.30;99.90;;;;;;5034932;28;20180;-82
2022/07/23 09:22:34;;;;;;;10.35;5.43;;;23.90;99.90;;;;;;5034697;28;20211;-82
2022/07/23 09:25:15;;;;;;;5.72;4.50;;;24.10;99.90;;;;;;5035101;28;20188;-83
2022/07/23 09:27:59;;;;;;;5.93;4.75;;;24.30;99.90;;;;;;5017293;28;20175;-82
2022/07/23 09:30:27;;;;;;;6.93;3.90;;;24.40;99.90;;;;;;5034971;28;20188;-82
2022/07/23 09:33:13;;;;;;;6.10;4.22;;;24.40;99.90;;;;;;5016733;28;20530;-82
2022/07/23 09:35:53;;;;;;;5.03;4.50;;;24.50;99.90;;;;;;5034559;28;20203;-82
2022/07/23 09:38:21;;;;;;;7.30;5.18;;;24.40;99.90;;;;;;5016811;28;20186;-82
2022/07/23 09:41:05;;;;;;;5.70;5.15;;;24.70;99.90;;;;;;5034616;28;20218;-83
2022/07/23 09:43:31;;;;;;;4.07;3.67;;;24.60;99.90;;;;;;5018156;28;20636;-81
2022/07/23 09:46:16;;;;;;;8.95;4.13;;;24.50;99.90;;;;;;5017871;28;20172;-81
2022/07/23 09:48:42;;;;;;;5.03;4.15;;;25.00;99.90;;;;;;5017683;28;20234;-85
2022/07/23 09:51:08;;;;;;;6.45;4.00;;;24.90;99.90;;;;;;5034673;28;20711;-82
2022/07/23 09:53:33;;;;;;;6.78;4.22;;;25.00;99.90;;;;;;5017678;28;20526;-82
2022/07/23 09:56:00;;;;;;;5.25;4.22;;;24.90;99.90;;;;;;5016787;28;20215;-82
2022/07/23 09:58:28;;;;;;;10.18;4.60;;;24.70;99.90;;;;;;5016501;28;20251;-83
2022/07/23 10:00:55;;;;;;;6.55;4.78;;;24.90;99.90;;;;;;5016481;28;20553;-84
2022/07/23 10:03:23;;;;;;;10.70;5.15;;;24.80;99.90;;;;;;5034412;28;20524;-83
2022/07/23 10:05:49;;;;;;;6.35;4.47;;;24.70;99.90;;;;;;5034212;28;20172;-82
2022/07/23 10:08:18;;;;;;;5.25;3.92;;;24.80;99.90;;;;;;5033923;28;20167;-82
2022/07/23 10:10:46;;;;;;;5.93;3.10;;;25.00;99.90;;;;;;5039160;28;20196;-82
2022/07/23 10:15:59;;;;;;;4.10;2.83;;;25.20;99.90;;;;;;5038220;28;20222;-82
2022/07/23 10:18:25;;;;;;;2.95;2.65;;;25.30;99.90;;;;;;5037810;28;20166;-82
2022/07/23 10:20:51;;;;;;;8.35;3.63;;;25.40;99.90;;;;;;5039385;28;20196;-82
2022/07/23 10:23:45;;;;;;;8.07;4.03;;;25.30;99.90;;;;;;5038570;28;20607;-81
2022/07/23 10:26:32;;;;;;;6.63;3.38;;;25.20;99.90;;;;;;5038789;28;20231;-82
2022/07/23 10:29:27;;;;;;;6.65;3.97;;;25.20;99.90;;;;;;5025349;28;20568;-82
2022/07/23 10:32:02;;;;;;;11.20;2.83;;;25.40;99.90;;;;;;5026710;28;20543;-83
2022/07/23 10:34:41;;;;;;;4.45;3.88;;;25.50;99.90;;;;;;5038748;28;20175;-83
2022/07/23 10:37:23;;;;;;;5.10;3.40;;;25.40;99.90;;;;;;5040547;28;20226;-81
2022/07/23 10:40:12;;;;;;;5.05;3.10;;;25.40;99.90;;;;;;5021982;28;20194;-82
2022/07/23 10:42:40;;;;;;;6.80;3.75;;;25.30;99.90;;;;;;5036812;28;20675;-82
2022/07/23 10:45:31;;;;;;;3.75;3.45;;;25.10;99.90;;;;;;5018716;28;20168;-84
2022/07/23 10:48:13;;;;;;;6.57;3.17;;;25.40;99.90;;;;;;5028756;28;20687;-82
2022/07/23 10:50:39;;;;;;;3.42;2.97;;;25.60;99.90;;;;;;5036906;28;20203;-83
2022/07/23 10:53:15;;;;;;;6.55;3.50;;;25.60;99.90;;;;;;5036038;28;20164;-82
2022/07/23 10:55:52;;;;;;;3.90;3.45;;;25.50;99.90;;;;;;5034885;28;20198;-82
2022/07/23 10:58:23;;;;;;;6.53;3.45;;;25.60;99.90;;;;;;5018141;28;20507;-84
2022/07/23 11:00:49;;;;;;;6.55;3.17;;;25.70;99.90;;;;;;5017372;28;20187;-84
2022/07/23 11:03:37;;;;;;;3.13;2.70;;;25.90;99.90;;;;;;5036106;28;20180;-82
2022/07/23 11:06:03;;;;;;;3.80;2.63;;;26.10;99.90;;;;;;5034267;28;20195;-83
2022/07/23 11:08:29;;;;;;;7.72;3.17;;;26.30;99.90;;;;;;5033936;28;20167;-80
2022/07/23 11:11:00;;;;;;;5.78;4.38;;;26.40;99.90;;;;;;5033390;28;20261;-82
2022/07/23 11:13:31;;;;;;;4.13;3.50;;;26.40;99.90;;;;;;5033865;28;20628;-85
2022/07/23 11:16:04;;;;;;;3.80;3.40;;;26.40;99.90;;;;;;5035074;28;20192;-83
2022/07/23 11:18:46;;;;;;;4.57;4.18;;;26.50;99.90;;;;;;5020656;28;20617;-79
2022/07/23 11:21:26;;;;;;;3.63;3.28;;;26.10;99.90;;;;;;5054732;28;20180;-81
2022/07/23 11:24:06;;;;;;;5.80;3.10;;;26.40;99.90;;;;;;5037875;28;20202;-82
2022/07/23 11:26:43;;;;;;;6.93;3.42;;;26.60;99.90;;;;;;5033510;28;20166;-84
2022/07/23 11:29:33;;;;;;;4.18;3.60;;;26.70;99.90;;;;;;5032869;28;20193;-82
2022/07/23 11:32:08;;;;;;;3.58;3.20;;;26.40;99.90;;;;;;5033253;28;20176;-83
2022/07/23 11:34:40;;;;;;;3.42;3.13;;;26.60;99.90;;;;;;5032605;28;20191;-82
2022/07/23 11:37:08;;;;;;;3.22;2.92;;;26.30;99.90;;;;;;5033146;28;20302;-82
2022/07/23 11:39:34;;;;;;;4.55;3.20;;;26.10;99.90;;;;;;5032573;28;20520;-83
2022/07/23 11:42:04;;;;;;;4.45;3.05;;;25.80;99.90;;;;;;4998995;28;20179;-83
2022/07/23 11:44:35;;;;;;;3.58;2.88;;;25.80;99.90;;;;;;5014861;28;20195;-83
2022/07/23 11:47:04;;;;;;;5.72;3.28;;;26.10;99.90;;;;;;5032661;28;20171;-83
2022/07/23 11:49:30;;;;;;;5.20;4.32;;;26.50;99.90;;;;;;5033084;28;20164;-83
2022/07/23 11:52:09;;;;;;;5.05;3.55;;;26.50;99.90;;;;;;5032905;28;20177;-82
2022/07/23 11:54:37;;;;;;;4.53;3.20;;;26.70;99.90;;;;;;5014888;28;20163;-82
2022/07/23 11:57:04;;;;;;;3.42;3.13;;;26.70;99.90;;;;;;5032504;28;20211;-83
2022/07/23 11:59:33;;;;;;;2.85;2.60;;;26.80;99.90;;;;;;5032586;28;20250;-83
2022/07/23 12:02:01;;;;;;;3.55;3.05;;;26.80;99.90;;;;;;5014833;28;20624;-83
2022/07/23 12:04:40;;;;;;;4.18;3.45;;;26.60;99.90;;;;;;5015067;28;20183;-83
2022/07/23 12:07:49;;;;;;;6.63;3.03;;;26.60;99.90;;;;;;5032874;28;20167;-82
2022/07/23 12:10:28;;;;;;;4.53;3.85;;;26.60;99.90;;;;;;5032808;28;20184;-82
2022/07/23 12:13:10;;;;;;;6.03;3.47;;;26.30;99.90;;;;;;5033158;28;20175;-84
2022/07/23 12:15:41;;;;;;;4.05;3.75;;;26.30;99.90;;;;;;5036224;28;20184;-82
2022/07/23 12:18:09;;;;;;;5.35;4.43;;;26.20;99.90;;;;;;5038817;28;20180;-83
2022/07/23 12:21:03;;;;;;;5.63;3.40;;;26.30;99.90;;;;;;5018831;28;20188;-82
2022/07/23 12:23:28;;;;;;;5.57;3.22;;;26.30;99.90;;;;;;5033641;28;20199;-83
2022/07/23 12:25:54;;;;;;;4.95;4.22;;;26.20;99.90;;;;;;5023479;28;20182;-84
2022/07/23 12:28:32;;;;;;;4.38;3.33;;;26.20;99.90;;;;;;5020828;28;20650;-83
2022/07/23 12:30:59;;;;;;;7.70;4.10;;;26.50;99.90;;;;;;5022153;28;20226;-82
2022/07/23 12:33:33;;;;;;;3.75;3.45;;;26.80;99.90;;;;;;5036740;28;20628;-83
2022/07/23 12:36:03;;;;;;;7.63;4.63;;;27.00;99.90;;;;;;5038813;28;20215;-83
2022/07/23 12:38:37;;;;;;;5.57;3.30;;;27.10;99.90;;;;;;5043092;28;20168;-81
2022/07/23 12:41:04;;;;;;;4.35;3.17;;;27.40;99.90;;;;;;5043875;28;20211;-83
2022/07/23 12:43:36;;;;;;;15.80;3.53;;;27.70;99.90;;;;;;5030175;28;20168;-84